createdAt,value
2019-04-26T00:00:03.081Z,99175.16
2019-04-26T00:02:43.578Z,99169.20
2019-04-26T00:05:17.207Z,99175.12
2019-04-26T00:07:51.279Z,99170.14
2019-04-26T00:10:31.957Z,99174.94
2019-04-26T00:13:27.574Z,99168.65
2019-04-26T00:16:22.784Z,99171.34
2019-04-26T00:18:56.619Z,99169.92
2019-04-26T00:21:30.312Z,99167.56
2019-04-26T00:24:03.820Z,99170.36
2019-04-26T00:26:37.103Z,99163.58
2019-04-26T00:29:11.368Z,99159.37
2019-04-26T00:31:44.675Z,99158.42
2019-04-26T00:34:19.531Z,99154.55
2019-04-26T00:36:52.760Z,99151.32
2019-04-26T00:39:26.441Z,99148.47
2019-04-26T00:42:00.101Z,99144.47
2019-04-26T00:44:33.418Z,99148.16
2019-04-26T00:47:09.739Z,99149.95
2019-04-26T00:49:44.216Z,99150.32
2019-04-26T00:52:18.132Z,99148.28
2019-04-26T00:54:52.362Z,99145.12
2019-04-26T00:57:26.914Z,99142.05
2019-04-26T01:00:01.007Z,99140.25
2019-04-26T01:02:38.861Z,99143.56
2019-04-26T01:05:12.111Z,99137.72
2019-04-26T01:07:47.314Z,99134.96
2019-04-26T01:10:21.619Z,99123.89
2019-04-26T01:12:54.871Z,99130.90
2019-04-26T01:15:28.168Z,99128.05
2019-04-26T01:18:01.702Z,99118.98
2019-04-26T01:20:37.354Z,99119.44
2019-04-26T01:23:14.381Z,99118.88
2019-04-26T01:26:09.152Z,99115.34
2019-04-26T01:28:56.651Z,99109.92
2019-04-26T01:31:34.317Z,99110.02
2019-04-26T01:34:07.409Z,99108.32
2019-04-26T01:36:41.985Z,99108.08
2019-04-26T01:39:21.266Z,99100.56
2019-04-26T01:42:03.427Z,99097.38
2019-04-26T01:44:47.863Z,99096.23
2019-04-26T01:47:22.161Z,99095.69
2019-04-26T01:49:56.169Z,99093.14
2019-04-26T01:52:30.297Z,99091.42
2019-04-26T01:55:03.566Z,99085.84
2019-04-26T01:57:37.084Z,99086.53
2019-04-26T02:00:25.581Z,99081.98
2019-04-26T02:03:02.549Z,99080.34
2019-04-26T02:05:35.851Z,99076.25
2019-04-26T02:08:10.544Z,99076.58
2019-04-26T02:10:44.127Z,99067.34
2019-04-26T02:13:17.482Z,99066.48
2019-04-26T02:15:50.726Z,99063.87
2019-04-26T02:18:25.413Z,99058.48
2019-04-26T02:21:24.502Z,99058.64
2019-04-26T02:24:17.546Z,99059.09
2019-04-26T02:26:52.328Z,99057.14
2019-04-26T02:29:31.182Z,99054.60
2019-04-26T02:32:09.145Z,99052.50
2019-04-26T02:34:43.520Z,99055.19
2019-04-26T02:37:17.575Z,99045.86
2019-04-26T02:39:52.913Z,99049.58
2019-04-26T02:42:36.718Z,99046.02
2019-04-26T02:45:58.328Z,99041.06
2019-04-26T02:48:51.918Z,99043.16
2019-04-26T02:51:36.266Z,99037.19
2019-04-26T02:54:29.077Z,99044.73
2019-04-26T02:57:05.001Z,99042.88
2019-04-26T02:59:47.854Z,99046.44
2019-04-26T03:02:33.289Z,99038.84
2019-04-26T03:05:09.954Z,99036.14
2019-04-26T03:08:18.827Z,99037.83
2019-04-26T03:11:22.476Z,99042.84
2019-04-26T03:14:21.060Z,99041.39
2019-04-26T03:17:16.079Z,99043.08
2019-04-26T03:20:01.857Z,99040.94
2019-04-26T03:23:01.456Z,99043.23
2019-04-26T03:26:00.140Z,99041.13
2019-04-26T03:29:16.108Z,99041.23
2019-04-26T03:32:30.000Z,99044.42
2019-04-26T03:35:55.364Z,99033.54
2019-04-26T03:38:53.995Z,99032.36
2019-04-26T03:41:44.466Z,99037.52
2019-04-26T03:44:40.925Z,99039.08
2019-04-26T03:47:20.258Z,99033.63
2019-04-26T03:50:30.986Z,99034.97
2019-04-26T03:53:38.305Z,99031.84
2019-04-26T03:57:13.839Z,99032.66
2019-04-26T04:00:38.760Z,99036.00
2019-04-26T04:04:09.533Z,99030.01
2019-04-26T04:07:02.676Z,99028.92
2019-04-26T04:09:21.040Z,99025.87
2019-04-26T04:12:12.711Z,99032.16
2019-04-26T04:15:16.447Z,99029.12
2019-04-26T04:17:59.138Z,99026.73
2019-04-26T04:21:12.440Z,99028.78
2019-04-26T04:24:14.638Z,99025.37
2019-04-26T04:27:13.651Z,99029.36
2019-04-26T04:30:31.046Z,99028.32
2019-04-26T04:34:11.707Z,99025.68
2019-04-26T04:36:55.942Z,99017.61
2019-04-26T04:39:49.907Z,99026.02
2019-04-26T04:43:30.811Z,99029.48
2019-04-26T04:46:54.174Z,99017.63
2019-04-26T04:50:33.986Z,99014.55
2019-04-26T04:53:56.783Z,99017.69
2019-04-26T04:57:37.351Z,99014.48
2019-04-26T05:00:31.024Z,99005.23
2019-04-26T05:03:37.967Z,98999.86
2019-04-26T05:06:28.799Z,98995.35
2019-04-26T05:09:30.694Z,98985.59
2019-04-26T05:12:16.237Z,98994.16
2019-04-26T05:15:39.618Z,98996.48
2019-04-26T05:19:28.440Z,98999.25
2019-04-26T05:23:01.603Z,98995.75
2019-04-26T05:26:47.671Z,98999.47
2019-04-26T05:30:40.939Z,98997.82
2019-04-26T05:33:48.852Z,98996.33
2019-04-26T05:37:05.943Z,98996.83
2019-04-26T05:40:06.750Z,98995.43
2019-04-26T05:43:50.253Z,98995.64
2019-04-26T05:47:37.703Z,99001.19
2019-04-26T05:51:18.671Z,99003.70
2019-04-26T05:54:49.596Z,98999.17
2019-04-26T05:58:11.501Z,98994.28
2019-04-26T06:01:32.895Z,98987.51
2019-04-26T06:04:43.211Z,98983.97
2019-04-26T06:08:04.554Z,98989.09
2019-04-26T06:11:00.045Z,98985.61
2019-04-26T06:14:50.485Z,98988.39
2019-04-26T06:18:19.932Z,98990.05
2019-04-26T06:21:36.893Z,98988.83
2019-04-26T06:24:45.602Z,98982.94
2019-04-26T06:28:00.627Z,98977.50
2019-04-26T06:31:15.095Z,98966.41
2019-04-26T06:34:24.014Z,98970.64
2019-04-26T06:37:21.070Z,98969.17
2019-04-26T06:40:14.993Z,98961.34
2019-04-26T06:43:19.530Z,98954.25
2019-04-26T06:47:01.767Z,98951.34
2019-04-26T06:50:16.810Z,98950.88
2019-04-26T06:53:38.335Z,98943.50
2019-04-26T06:56:50.905Z,98941.50
2019-04-26T07:00:07.078Z,98935.45
2019-04-26T07:03:11.279Z,98943.14
2019-04-26T07:05:49.378Z,98939.32
2019-04-26T07:09:13.086Z,98934.79
2019-04-26T07:12:50.428Z,98936.14
2019-04-26T07:16:22.367Z,98935.21
2019-04-26T07:20:34.330Z,98947.34
2019-04-26T07:24:16.750Z,98946.41
2019-04-26T07:28:11.864Z,98937.14
2019-04-26T07:31:09.014Z,98932.17
2019-04-26T07:34:44.896Z,98923.84
2019-04-26T07:38:04.827Z,98921.95
2019-04-26T07:41:33.140Z,98919.52
2019-04-26T07:44:55.287Z,98920.70
2019-04-26T07:48:19.313Z,98926.67
2019-04-26T07:51:57.812Z,98924.61
2019-04-26T07:55:14.912Z,98925.66
2019-04-26T07:58:40.122Z,98922.42
2019-04-26T08:02:06.695Z,98921.78
2019-04-26T08:04:49.213Z,98922.67
2019-04-26T08:07:28.310Z,98918.80
2019-04-26T08:10:23.922Z,98918.03
2019-04-26T08:13:09.988Z,98910.44
2019-04-26T08:16:17.037Z,98914.73
2019-04-26T08:19:00.222Z,98905.30
2019-04-26T08:21:42.557Z,98905.53
2019-04-26T08:24:23.635Z,98904.36
2019-04-26T08:27:26.410Z,98904.48
2019-04-26T08:30:10.120Z,98904.66
2019-04-26T08:32:49.788Z,98907.67
2019-04-26T08:35:29.071Z,98901.23
2019-04-26T08:38:16.367Z,98894.93
2019-04-26T08:40:46.250Z,98901.95
2019-04-26T08:43:44.571Z,98893.52
2019-04-26T08:46:41.899Z,98888.55
2019-04-26T08:49:35.117Z,98887.84
2019-04-26T08:52:14.565Z,98893.16
2019-04-26T08:54:54.972Z,98884.53
2019-04-26T08:57:33.610Z,98882.55
2019-04-26T09:00:15.483Z,98882.82
2019-04-26T09:03:12.054Z,98884.34
2019-04-26T09:06:04.358Z,98884.50
2019-04-26T09:08:43.473Z,98885.22
2019-04-26T09:11:25.955Z,98883.73
2019-04-26T09:13:59.646Z,98882.98
2019-04-26T09:16:32.815Z,98879.90
2019-04-26T09:19:05.995Z,98874.49
2019-04-26T09:22:13.684Z,98880.61
2019-04-26T09:24:55.051Z,98872.97
2019-04-26T09:27:42.247Z,98875.13
2019-04-26T09:30:33.841Z,98864.87
2019-04-26T09:33:21.659Z,98871.41
2019-04-26T09:35:55.874Z,98869.42
2019-04-26T09:38:29.667Z,98867.06
2019-04-26T09:41:03.554Z,98864.16
2019-04-26T09:44:00.319Z,98854.84
2019-04-26T09:46:55.768Z,98857.45
2019-04-26T09:49:37.324Z,98851.98
2019-04-26T09:52:17.820Z,98845.66
2019-04-26T09:54:50.970Z,98842.87
2019-04-26T09:57:24.412Z,98845.11
2019-04-26T09:59:57.565Z,98839.02
2019-04-26T10:02:33.974Z,98842.77
2019-04-26T10:05:08.028Z,98838.12
2019-04-26T10:07:40.589Z,98837.23
2019-04-26T10:10:22.814Z,98832.59
2019-04-26T10:13:10.374Z,98826.98
2019-04-26T10:16:13.999Z,98825.48
2019-04-26T10:18:54.488Z,98824.52
2019-04-26T10:21:25.705Z,98823.08
2019-04-26T10:23:58.047Z,98819.14
2019-04-26T10:26:31.468Z,98818.28
2019-04-26T10:29:05.308Z,98819.56
2019-04-26T10:31:38.637Z,98814.26
2019-04-26T10:34:12.919Z,98815.90
2019-04-26T10:36:46.555Z,98803.53
2019-04-26T10:39:20.664Z,98804.78
2019-04-26T10:41:54.488Z,98803.23
2019-04-26T10:44:28.451Z,98801.58
2019-04-26T10:47:04.487Z,98799.05
2019-04-26T10:49:58.167Z,98792.66
2019-04-26T10:52:41.603Z,98791.89
2019-04-26T10:55:31.265Z,98786.28
2019-04-26T10:58:14.443Z,98785.50
2019-04-26T11:00:52.753Z,98784.13
2019-04-26T11:03:24.635Z,98788.73
2019-04-26T11:05:58.376Z,98781.06
2019-04-26T11:08:31.260Z,98785.88
2019-04-26T11:11:04.942Z,98785.66
2019-04-26T11:13:38.261Z,98784.62
2019-04-26T11:16:12.091Z,98771.81
2019-04-26T11:18:45.358Z,98768.06
2019-04-26T11:21:20.777Z,98766.42
2019-04-26T11:23:54.225Z,98763.42
2019-04-26T11:26:31.033Z,98760.23
2019-04-26T11:29:03.174Z,98760.38
2019-04-26T11:31:36.804Z,98757.67
2019-04-26T11:34:10.574Z,98760.16
2019-04-26T11:36:44.667Z,98753.81
2019-04-26T11:39:18.764Z,98753.82
2019-04-26T11:41:52.767Z,98745.98
2019-04-26T11:44:27.517Z,98754.08
2019-04-26T11:47:07.638Z,98740.80
2019-04-26T11:49:41.605Z,98747.14
2019-04-26T11:52:12.734Z,98742.67
2019-04-26T11:54:45.984Z,98736.17
2019-04-26T11:57:19.086Z,98732.73
2019-04-26T11:59:51.506Z,98729.47
2019-04-26T12:02:24.352Z,98724.48
2019-04-26T12:05:24.687Z,98723.67
2019-04-26T12:08:02.376Z,98721.35
2019-04-26T12:10:35.298Z,98718.02
2019-04-26T12:13:08.709Z,98718.22
2019-04-26T12:15:43.686Z,98708.48
2019-04-26T12:18:18.388Z,98712.86
2019-04-26T12:20:51.899Z,98706.77
2019-04-26T12:23:24.791Z,98701.75
2019-04-26T12:25:56.801Z,98695.03
2019-04-26T12:28:30.093Z,98697.78
2019-04-26T12:31:03.015Z,98696.67
2019-04-26T12:33:39.079Z,98690.45
2019-04-26T12:36:13.351Z,98687.64
2019-04-26T12:38:45.735Z,98678.95
2019-04-26T12:41:25.214Z,98678.13
2019-04-26T12:43:58.908Z,98681.75
2019-04-26T12:46:43.443Z,98675.11
2019-04-26T12:49:16.413Z,98676.81
2019-04-26T12:51:49.786Z,98676.66
2019-04-26T12:54:22.769Z,98670.92
2019-04-26T12:56:55.173Z,98677.78
2019-04-26T12:59:28.252Z,98675.83
2019-04-26T13:02:05.753Z,98676.50
2019-04-26T13:04:36.142Z,98675.19
2019-04-26T13:07:23.574Z,98668.77
2019-04-26T13:10:12.756Z,98670.24
2019-04-26T13:13:04.008Z,98667.33
2019-04-26T13:16:21.734Z,98666.44
2019-04-26T13:18:52.838Z,98651.52
2019-04-26T13:21:26.193Z,98647.13
2019-04-26T13:24:03.952Z,98640.10
2019-04-26T13:26:36.302Z,98643.55
2019-04-26T13:29:09.395Z,98649.13
2019-04-26T13:31:42.668Z,98632.11
2019-04-26T13:34:14.662Z,98631.83
2019-04-26T13:36:47.929Z,98629.03
2019-04-26T13:39:22.361Z,98626.11
2019-04-26T13:42:02.958Z,98621.87
2019-04-26T13:44:45.995Z,98615.84
2019-04-26T13:47:46.465Z,98612.02
2019-04-26T13:50:32.191Z,98602.25
2019-04-26T13:53:06.115Z,98607.74
2019-04-26T13:55:39.993Z,98615.30
2019-04-26T13:58:15.415Z,98616.53
2019-04-26T14:00:49.038Z,98610.53
2019-04-26T14:03:22.333Z,98613.58
2019-04-26T14:05:55.149Z,98609.11
2019-04-26T14:08:28.820Z,98608.83
2019-04-26T14:11:02.965Z,98607.41
2019-04-26T14:13:36.775Z,98611.39
2019-04-26T14:16:09.451Z,98609.83
2019-04-26T14:18:43.256Z,98615.55
2019-04-26T14:21:16.837Z,98613.70
2019-04-26T14:24:08.581Z,98621.24
2019-04-26T14:26:44.632Z,98618.75
2019-04-26T14:29:18.415Z,98617.94
2019-04-26T14:31:53.134Z,98618.64
2019-04-26T14:34:26.167Z,98629.82
2019-04-26T14:37:06.323Z,98626.83
2019-04-26T14:39:49.252Z,98634.53
2019-04-26T14:42:09.112Z,98635.86
2019-04-26T14:44:49.556Z,98628.35
2019-04-26T14:47:18.483Z,98632.58
2019-04-26T14:49:53.462Z,98640.25
2019-04-26T14:52:29.000Z,98637.89
2019-04-26T14:55:02.529Z,98645.17
2019-04-26T14:57:36.653Z,98646.95
2019-04-26T15:00:12.721Z,98648.70
2019-04-26T15:02:56.118Z,98651.34
2019-04-26T15:05:46.477Z,98654.53
2019-04-26T15:08:20.024Z,98651.11
2019-04-26T15:11:00.913Z,98656.22
2019-04-26T15:13:29.249Z,98651.02
2019-04-26T15:16:03.927Z,98651.73
2019-04-26T15:18:37.849Z,98653.69
2019-04-26T15:21:12.886Z,98652.52
2019-04-26T15:23:47.024Z,98650.45
2019-04-26T15:26:24.253Z,98653.37
2019-04-26T15:28:54.684Z,98654.64
2019-04-26T15:31:28.413Z,98653.77
2019-04-26T15:34:03.240Z,98656.54
2019-04-26T15:36:37.429Z,98660.52
2019-04-26T15:39:45.296Z,98659.95
2019-04-26T15:42:36.817Z,98660.98
2019-04-26T15:45:17.180Z,98661.20
2019-04-26T15:48:16.161Z,98660.62
2019-04-26T15:50:50.600Z,98664.03
2019-04-26T15:53:23.950Z,98666.66
2019-04-26T15:55:57.400Z,98666.08
2019-04-26T15:58:30.968Z,98667.55
2019-04-26T16:01:06.778Z,98667.97
2019-04-26T16:03:41.154Z,98667.59
2019-04-26T16:06:16.216Z,98662.44
2019-04-26T16:08:50.158Z,98663.33
2019-04-26T16:11:22.930Z,98668.09
2019-04-26T16:13:56.947Z,98666.41
2019-04-26T16:16:32.994Z,98662.51
2019-04-26T16:19:05.701Z,98662.83
2019-04-26T16:21:38.944Z,98656.52
2019-04-26T16:24:12.912Z,98653.83
2019-04-26T16:26:55.974Z,98652.47
2019-04-26T16:29:46.617Z,98654.69
2019-04-26T16:32:52.655Z,98652.94
2019-04-26T16:38:20.221Z,98657.34
2019-04-26T16:40:55.149Z,98656.86
2019-04-26T16:43:39.631Z,98654.88
2019-04-26T16:46:03.516Z,98651.94
2019-04-26T16:48:36.919Z,98650.22
2019-04-26T16:51:09.805Z,98650.02
2019-04-26T16:53:58.500Z,98645.52
2019-04-26T16:56:25.809Z,98643.98
2019-04-26T16:58:54.975Z,98644.28
2019-04-26T17:00:30.713Z,98655.47
2019-04-26T17:01:27.307Z,98643.94
2019-04-26T17:04:01.049Z,98645.96
2019-04-26T17:06:34.320Z,98645.44
2019-04-26T17:09:09.748Z,98647.22
2019-04-26T17:11:43.492Z,98646.06
2019-04-26T17:14:16.097Z,98650.41
2019-04-26T17:16:49.004Z,98647.11
2019-04-26T17:19:22.786Z,98650.04
2019-04-26T17:22:15.817Z,98647.62
2019-04-26T17:25:12.544Z,98650.06
2019-04-26T17:27:47.151Z,98656.80
2019-04-26T17:30:23.404Z,98655.06
2019-04-26T17:32:57.047Z,98653.34
2019-04-26T17:35:29.782Z,98649.42
2019-04-26T17:38:05.001Z,98655.33
2019-04-26T17:40:38.022Z,98652.19
2019-04-26T17:43:11.417Z,98650.05
2019-04-26T17:45:44.933Z,98650.88
2019-04-26T17:48:18.233Z,98652.33
2019-04-26T17:50:52.038Z,98652.45
2019-04-26T17:53:28.799Z,98661.81
2019-04-26T17:56:00.668Z,98662.09
2019-04-26T17:58:35.758Z,98662.37
2019-04-26T18:01:08.354Z,98662.84
2019-04-26T18:03:50.750Z,98668.53
2019-04-26T18:06:28.819Z,98672.13
2019-04-26T18:08:54.904Z,98674.05
2019-04-26T18:11:27.094Z,98670.79
2019-04-26T18:14:00.559Z,98668.42
2019-04-26T18:16:34.475Z,98667.06
2019-04-26T18:19:30.457Z,98669.64
2019-04-26T18:22:16.863Z,98670.36
2019-04-26T18:24:49.760Z,98677.45
2019-04-26T18:27:24.070Z,98681.16
2019-04-26T18:29:59.849Z,98681.30
2019-04-26T18:32:33.951Z,98686.07
2019-04-26T18:35:09.217Z,98691.46
2019-04-26T18:37:43.288Z,98690.75
2019-04-26T18:40:16.516Z,98698.02
2019-04-26T18:42:50.246Z,98696.34
2019-04-26T18:45:28.807Z,98702.78
2019-04-26T18:48:01.156Z,98704.80
2019-04-26T18:50:36.549Z,98703.59
2019-04-26T18:53:26.642Z,98710.75
2019-04-26T18:56:03.474Z,98709.90
2019-04-26T18:58:38.064Z,98716.83
2019-04-26T19:01:13.600Z,98723.38
2019-04-26T19:03:49.378Z,98719.90
2019-04-26T19:06:31.129Z,98722.52
2019-04-26T19:09:02.356Z,98721.39
2019-04-26T19:11:34.214Z,98722.43
2019-04-26T19:14:24.211Z,98718.09
2019-04-26T19:17:14.961Z,98720.41
2019-04-26T19:20:12.301Z,98719.09
2019-04-26T19:22:51.931Z,98720.19
2019-04-26T19:25:25.482Z,98717.20
2019-04-26T19:28:03.525Z,98717.70
2019-04-26T19:30:33.891Z,98714.28
2019-04-26T19:33:11.649Z,98711.91
2019-04-26T19:35:44.076Z,98716.95
2019-04-26T19:38:15.227Z,98717.22
2019-04-26T19:40:48.564Z,98715.04
2019-04-26T19:43:30.756Z,98719.07
2019-04-26T19:46:16.999Z,98718.73
2019-04-26T19:49:25.798Z,98717.88
2019-04-26T19:52:19.239Z,98714.40
2019-04-26T19:55:11.460Z,98717.09
2019-04-26T19:57:57.517Z,98714.80
2019-04-26T20:00:32.176Z,98717.08
2019-04-26T20:03:08.452Z,98712.14
2019-04-26T20:05:43.489Z,98710.50
2019-04-26T20:08:14.786Z,98709.17
2019-04-26T20:10:48.277Z,98709.20
2019-04-26T20:13:22.007Z,98707.44
2019-04-26T20:15:57.462Z,98702.19
2019-04-26T20:18:34.402Z,98699.34
2019-04-26T20:21:06.503Z,98693.94
2019-04-26T20:23:43.684Z,98693.77
2019-04-26T20:26:14.282Z,98687.94
2019-04-26T20:28:46.643Z,98688.97
2019-04-26T20:31:45.022Z,98689.98
2019-04-26T20:34:18.162Z,98693.16
2019-04-26T20:36:48.925Z,98690.00
2019-04-26T20:39:23.965Z,98686.23
2019-04-26T20:42:01.915Z,98688.97
2019-04-26T20:44:48.058Z,98688.14
2019-04-26T20:47:12.002Z,98684.72
2019-04-26T20:49:49.581Z,98684.41
2019-04-26T20:52:21.339Z,98684.25
2019-04-26T20:54:54.103Z,98685.16
2019-04-26T20:57:30.653Z,98686.54
2019-04-26T21:00:03.222Z,98688.40
2019-04-26T21:02:35.237Z,98686.11
2019-04-26T21:05:11.246Z,98685.73
2019-04-26T21:07:49.107Z,98685.61
2019-04-26T21:10:22.208Z,98688.53
2019-04-26T21:12:55.225Z,98688.83
2019-04-26T21:15:28.062Z,98692.79
2019-04-26T21:18:02.751Z,98693.42
2019-04-26T21:20:36.510Z,98691.47
2019-04-26T21:23:13.317Z,98693.66
2019-04-26T21:25:55.114Z,98691.27
2019-04-26T21:28:38.202Z,98686.88
2019-04-26T21:31:36.129Z,98685.37
2019-04-26T21:34:12.461Z,98686.95
2019-04-26T21:37:00.442Z,98693.25
2019-04-26T21:39:47.652Z,98687.92
2019-04-26T21:42:20.930Z,98684.52
2019-04-26T21:44:54.939Z,98687.72
2019-04-26T21:47:27.541Z,98691.32
2019-04-26T21:50:01.226Z,98694.88
2019-04-26T21:52:34.330Z,98694.44
2019-04-26T21:55:08.635Z,98687.76
2019-04-26T21:57:41.909Z,98693.00
2019-04-26T22:00:40.604Z,98692.66
2019-04-26T22:03:16.089Z,98696.02
2019-04-26T22:05:50.695Z,98695.68
2019-04-26T22:08:30.006Z,98693.42
2019-04-26T22:11:04.582Z,98689.50
2019-04-26T22:13:56.228Z,98693.48
2019-04-26T22:16:46.993Z,98696.74
2019-04-26T22:19:38.054Z,98701.73
2019-04-26T22:22:23.242Z,98704.80
2019-04-26T22:24:56.664Z,98705.86
2019-04-26T22:27:29.625Z,98709.38
2019-04-26T22:30:03.918Z,98723.36
2019-04-26T22:32:37.105Z,98730.82
2019-04-26T22:35:13.448Z,98739.49
2019-04-26T22:37:45.610Z,98750.05
2019-04-26T22:40:19.963Z,98747.64
2019-04-26T22:42:56.749Z,98745.30
2019-04-26T22:45:54.101Z,98744.19
2019-04-26T22:48:33.941Z,98742.53
2019-04-26T22:51:07.267Z,98741.61
2019-04-26T22:53:39.644Z,98742.98
2019-04-26T22:56:13.416Z,98753.44
2019-04-26T22:58:46.305Z,98755.52
2019-04-26T23:01:20.552Z,98760.23
2019-04-26T23:03:53.866Z,98754.81
2019-04-26T23:06:27.854Z,98756.58
2019-04-26T23:09:01.192Z,98760.98
2019-04-26T23:11:35.034Z,98759.20
2019-04-26T23:14:19.145Z,98755.20
2019-04-26T23:17:08.418Z,98765.13
2019-04-26T23:20:03.857Z,98770.27
2019-04-26T23:22:37.668Z,98765.66
2019-04-26T23:25:11.008Z,98767.95
2019-04-26T23:27:45.038Z,98770.00
2019-04-26T23:30:18.147Z,98779.81
2019-04-26T23:32:53.235Z,98783.00
2019-04-26T23:35:26.925Z,98802.20
2019-04-26T23:38:01.323Z,98799.19
2019-04-26T23:40:35.569Z,98812.94
2019-04-26T23:43:09.755Z,98809.55
2019-04-26T23:45:48.377Z,98806.38
2019-04-26T23:48:18.424Z,98807.17
2019-04-26T23:50:51.255Z,98810.84
2019-04-26T23:53:24.600Z,98811.69
2019-04-26T23:55:58.376Z,98816.67
2019-04-26T23:58:33.203Z,98840.80
